Terminal Aerodrome Forecast
Issued by NWS

Current Version | Previous Version | Text Only | Print | Product List | Glossary On
Versions: 1 2 3 4 5 6 7 8 9 10 11 12 13 14 15 16 17 18 19 20 21 22 23 24 25 26 27 28 29 30 31 32 33 34 35 36 37 38
000
FTUS41 KBTV 212320
TAFPBG
TAF
KPBG 212320Z 2200/2224 35004KT 6SM BR OVC010
     FM220200 35003KT 5SM BR SCT008 OVC010
      TEMPO 2202/2206 BKN008
     FM220600 00000KT 4SM BR BKN008 OVC010
     FM221400 15006KT P6SM OVC015=

USA.gov is the U.S. government's official web portal to all federal, state and local government web resources and services.